Soaring Guidance
Issued by NWS Reno, NV

Home | Current Version | Previous Version | Text Only | Print | Product List | Glossary On
Versions: 1 2 3 4 5 6 7 8 9 10 11 12 13
000
UXUS97 KREV 311348
SRGREV

SOARING FORECAST
NATIONAL WEATHER SERVICE - RENO NV
700 AM PDT WED AUG 31 2016

THIS SOARING FORECAST IS FOR THE EASTERN SIERRA AND WESTERN NEVADA
WITH SPECIFIC INDICES FOR THE GREATER RENO AREA.

THIS FORECAST IS PREPARED DAILY BY 700 AM AND IS NOT UPDATED.

FOR CURRENT FLIGHT CONDITIONS...FORECASTS...AND ADVISORIES...ACCESS
YOUR LOCAL BRIEFING OUTLET OR FLIGHT SERVICE STATION.

*******************************************************************
FORECASTED LOCAL INDICES FOR RENO:        TODAY     YESTERDAY
FORECASTED MAX TEMP AT RENO (DEG F).....     90          93
FORECASTED TRIGGER TEMPERATURE (DEG F)..     77          83
   EXCEEDED YESTERDAY BY 1155 AM PDT
FORECASTED MAXIMUM ALTITUDE (FT MSL)....  18000       17000
FORECASTED SOARING INDEX (FPM)..........   1260        1170
FORECASTED K-INDEX.........VALID 18Z....      1           1
FORECASTED K-INDEX.........VALID 00Z....     16           4
FORECASTED LIFTED INDEX....VALID 18Z....      7           6
FORECASTED LIFTED INDEX....VALID 00Z....      5           4

AFTERNOON WINDS ALOFT FORECAST
MSL (FT) WIND/TEMP
9000  2417/+14
10000 2121/+11
12000 2029/+07
14000 2029/+01
16000 2029/-04
18000 2130/-10
24000 2234/-23
30000 2340/-39
34000 2352/-47
39000 2354/-54

SLIDE MOUNTAIN DATA:
     DATE       TIME     TEMP  DEWPT   RH         WIND (MPH)
                        (F)   (F)           | DIR  SPEED GUST
2016-08-31    05:20      52    30     29    | 183   11   22
2016-08-31    05:00      52    31     32    | 202    8   16
2016-08-31    04:50      52    30     31    | 209   10   25
2016-08-31    04:30      52    31     33    | 221   11   21

RENO TAF FORECAST:
KRNO 311123Z 3112/0112 VRB04KT P6SM SCT120 BKN200
     FM311900 20008KT P6SM SCT120 SCT200
     FM312100 24014G26KT P6SM FEW120 SCT200
     FM312300 28016G28KT P6SM FEW200
     FM010500 VRB04KT P6SM SKC

CARSON CITY TAF FORECAST:
KCXP 311123Z 3112/0112 VRB04KT P6SM SCT120 BKN200
     FM311800 19009KT P6SM SCT120 SCT200
     FM312100 24014G23KT P6SM FEW120 SCT200
     FM312300 26016G27KT P6SM FEW200
     FM010300 VRB04KT P6SM SKC

OUTLOOK FOR THE RENO-CARSON CITY-MINDEN AREA:
.THURSDAY...SUNNY. AREAS OF BLOWING DUST IN THE AFTERNOON. HIGHS
84 TO 89. SOUTHWEST WINDS UP TO 10 MPH INCREASING TO 10 TO 15 MPH
WITH GUSTS UP TO 40 MPH IN THE AFTERNOON.

SUNRISE AND SUNSET
AUGUST 31 2016........SUNRISE   627 AM PDT   SUNSET   731 PM PDT
SEPTEMBER  1 2016.....SUNRISE   628 AM PDT   SUNSET   729 PM PDT


USA.gov is the U.S. government's official web portal to all federal, state and local government web resources and services.